sensor_id;sensor_type;location;lat;lon;timestamp;P1;durP1;ratioP1;P2;durP2;ratioP2
72761;SDS011;60886;55.034;73.150;2023-06-19T00:00:15;17.45;;;8.18;;
72761;SDS011;60886;55.034;73.150;2023-06-19T00:03:19;16.35;;;8.88;;
72761;SDS011;60886;55.034;73.150;2023-06-19T00:06:21;16.90;;;8.53;;
72761;SDS011;60886;55.034;73.150;2023-06-19T00:09:22;18.50;;;9.45;;
72761;SDS011;60886;55.034;73.150;2023-06-19T00:12:24;22.87;;;10.67;;
72761;SDS011;60886;55.034;73.150;2023-06-19T00:15:25;19.33;;;10.10;;
72761;SDS011;60886;55.034;73.150;2023-06-19T00:18:28;19.73;;;9.40;;
72761;SDS011;60886;55.034;73.150;2023-06-19T00:21:30;19.05;;;9.52;;
72761;SDS011;60886;55.034;73.150;2023-06-19T00:24:31;20.17;;;10.13;;
72761;SDS011;60886;55.034;73.150;2023-06-19T00:27:32;23.27;;;10.10;;
72761;SDS011;60886;55.034;73.150;2023-06-19T00:30:35;19.00;;;10.17;;
72761;SDS011;60886;55.034;73.150;2023-06-19T00:33:36;19.10;;;9.20;;
72761;SDS011;60886;55.034;73.150;2023-06-19T00:36:38;16.60;;;9.48;;
72761;SDS011;60886;55.034;73.150;2023-06-19T00:39:42;20.98;;;11.18;;
72761;SDS011;60886;55.034;73.150;2023-06-19T00:42:43;19.30;;;9.70;;
72761;SDS011;60886;55.034;73.150;2023-06-19T00:45:46;17.30;;;9.27;;
72761;SDS011;60886;55.034;73.150;2023-06-19T00:48:47;19.17;;;9.70;;
72761;SDS011;60886;55.034;73.150;2023-06-19T00:51:51;16.58;;;8.45;;
72761;SDS011;60886;55.034;73.150;2023-06-19T00:54:53;17.13;;;8.77;;
72761;SDS011;60886;55.034;73.150;2023-06-19T00:57:58;17.73;;;9.13;;
72761;SDS011;60886;55.034;73.150;2023-06-19T01:01:01;17.13;;;9.02;;
72761;SDS011;60886;55.034;73.150;2023-06-19T01:04:03;16.83;;;9.10;;
72761;SDS011;60886;55.034;73.150;2023-06-19T01:07:07;16.45;;;8.68;;
72761;SDS011;60886;55.034;73.150;2023-06-19T01:10:11;16.20;;;8.87;;
72761;SDS011;60886;55.034;73.150;2023-06-19T01:16:28;15.80;;;8.45;;
72761;SDS011;60886;55.034;73.150;2023-06-19T01:19:31;17.05;;;8.98;;
72761;SDS011;60886;55.034;73.150;2023-06-19T01:22:32;17.27;;;8.90;;
72761;SDS011;60886;55.034;73.150;2023-06-19T01:25:36;16.98;;;8.73;;
72761;SDS011;60886;55.034;73.150;2023-06-19T01:28:38;17.90;;;9.10;;
72761;SDS011;60886;55.034;73.150;2023-06-19T01:31:53;17.48;;;9.23;;
72761;SDS011;60886;55.034;73.150;2023-06-19T01:35:00;16.83;;;9.00;;
72761;SDS011;60886;55.034;73.150;2023-06-19T01:38:04;17.57;;;8.90;;
72761;SDS011;60886;55.034;73.150;2023-06-19T01:41:07;18.40;;;8.98;;
72761;SDS011;60886;55.034;73.150;2023-06-19T01:44:13;17.60;;;9.20;;
72761;SDS011;60886;55.034;73.150;2023-06-19T01:47:15;19.15;;;9.35;;
72761;SDS011;60886;55.034;73.150;2023-06-19T01:50:21;20.03;;;9.03;;
72761;SDS011;60886;55.034;73.150;2023-06-19T01:53:23;20.20;;;9.77;;
72761;SDS011;60886;55.034;73.150;2023-06-19T01:56:25;21.33;;;10.27;;
72761;SDS011;60886;55.034;73.150;2023-06-19T01:59:26;18.15;;;9.50;;
72761;SDS011;60886;55.034;73.150;2023-06-19T02:02:28;16.42;;;9.52;;
72761;SDS011;60886;55.034;73.150;2023-06-19T02:05:30;14.77;;;8.70;;
72761;SDS011;60886;55.034;73.150;2023-06-19T02:08:32;17.07;;;9.33;;
72761;SDS011;60886;55.034;73.150;2023-06-19T02:11:33;18.23;;;9.15;;
72761;SDS011;60886;55.034;73.150;2023-06-19T02:14:35;19.77;;;9.40;;
72761;SDS011;60886;55.034;73.150;2023-06-19T02:17:36;17.30;;;9.65;;
72761;SDS011;60886;55.034;73.150;2023-06-19T02:20:39;18.07;;;9.30;;
72761;SDS011;60886;55.034;73.150;2023-06-19T02:23:40;20.03;;;10.00;;
72761;SDS011;60886;55.034;73.150;2023-06-19T02:26:43;22.50;;;10.45;;
72761;SDS011;60886;55.034;73.150;2023-06-19T02:29:44;22.48;;;11.77;;
72761;SDS011;60886;55.034;73.150;2023-06-19T02:32:47;25.30;;;12.37;;
72761;SDS011;60886;55.034;73.150;2023-06-19T02:35:48;24.52;;;10.98;;
72761;SDS011;60886;55.034;73.150;2023-06-19T02:38:51;20.67;;;10.05;;
72761;SDS011;60886;55.034;73.150;2023-06-19T02:42:03;20.98;;;10.32;;
72761;SDS011;60886;55.034;73.150;2023-06-19T02:45:05;20.67;;;10.10;;
72761;SDS011;60886;55.034;73.150;2023-06-19T02:48:15;17.17;;;9.60;;
72761;SDS011;60886;55.034;73.150;2023-06-19T02:51:17;27.58;;;15.02;;
72761;SDS011;60886;55.034;73.150;2023-06-19T02:54:18;21.57;;;9.83;;
72761;SDS011;60886;55.034;73.150;2023-06-19T02:57:20;28.73;;;10.48;;
72761;SDS011;60886;55.034;73.150;2023-06-19T03:00:21;23.17;;;10.87;;
72761;SDS011;60886;55.034;73.150;2023-06-19T03:03:23;21.20;;;10.03;;
72761;SDS011;60886;55.034;73.150;2023-06-19T03:06:25;22.73;;;10.02;;
72761;SDS011;60886;55.034;73.150;2023-06-19T03:09:30;17.90;;;10.20;;
72761;SDS011;60886;55.034;73.150;2023-06-19T03:12:32;22.65;;;10.68;;
72761;SDS011;60886;55.034;73.150;2023-06-19T03:15:33;21.97;;;9.63;;
72761;SDS011;60886;55.034;73.150;2023-06-19T03:18:35;18.88;;;9.45;;
72761;SDS011;60886;55.034;73.150;2023-06-19T03:21:36;20.88;;;10.55;;
72761;SDS011;60886;55.034;73.150;2023-06-19T03:24:38;22.05;;;9.48;;
72761;SDS011;60886;55.034;73.150;2023-06-19T03:27:58;18.81;;;9.53;;
72761;SDS011;60886;55.034;73.150;2023-06-19T03:30:59;19.17;;;9.13;;
72761;SDS011;60886;55.034;73.150;2023-06-19T03:34:02;21.40;;;10.07;;
72761;SDS011;60886;55.034;73.150;2023-06-19T03:37:03;20.80;;;9.52;;
72761;SDS011;60886;55.034;73.150;2023-06-19T03:40:06;19.40;;;9.20;;
72761;SDS011;60886;55.034;73.150;2023-06-19T03:43:15;20.02;;;9.80;;
72761;SDS011;60886;55.034;73.150;2023-06-19T03:46:18;19.35;;;9.88;;
72761;SDS011;60886;55.034;73.150;2023-06-19T03:49:20;25.50;;;10.67;;
72761;SDS011;60886;55.034;73.150;2023-06-19T03:52:25;22.63;;;9.70;;
72761;SDS011;60886;55.034;73.150;2023-06-19T03:55:26;22.27;;;9.73;;
72761;SDS011;60886;55.034;73.150;2023-06-19T03:58:28;22.90;;;10.48;;
72761;SDS011;60886;55.034;73.150;2023-06-19T04:01:29;20.27;;;10.43;;
72761;SDS011;60886;55.034;73.150;2023-06-19T04:04:30;21.88;;;10.38;;
72761;SDS011;60886;55.034;73.150;2023-06-19T04:07:32;19.27;;;9.70;;
72761;SDS011;60886;55.034;73.150;2023-06-19T04:10:34;19.55;;;9.63;;
72761;SDS011;60886;55.034;73.150;2023-06-19T04:13:35;19.20;;;9.95;;
72761;SDS011;60886;55.034;73.150;2023-06-19T04:16:37;21.15;;;10.88;;
72761;SDS011;60886;55.034;73.150;2023-06-19T04:19:38;17.30;;;9.40;;
72761;SDS011;60886;55.034;73.150;2023-06-19T04:22:42;24.08;;;10.35;;
72761;SDS011;60886;55.034;73.150;2023-06-19T04:25:44;21.63;;;10.67;;
72761;SDS011;60886;55.034;73.150;2023-06-19T04:28:46;21.50;;;10.20;;
72761;SDS011;60886;55.034;73.150;2023-06-19T04:31:48;23.10;;;10.30;;
72761;SDS011;60886;55.034;73.150;2023-06-19T04:34:50;20.27;;;9.55;;
72761;SDS011;60886;55.034;73.150;2023-06-19T04:37:58;18.95;;;9.40;;
72761;SDS011;60886;55.034;73.150;2023-06-19T04:41:02;17.25;;;8.73;;
72761;SDS011;60886;55.034;73.150;2023-06-19T04:44:04;17.07;;;8.93;;
72761;SDS011;60886;55.034;73.150;2023-06-19T04:47:06;14.90;;;8.80;;
72761;SDS011;60886;55.034;73.150;2023-06-19T04:50:07;16.93;;;9.17;;
72761;SDS011;60886;55.034;73.150;2023-06-19T04:53:09;17.77;;;8.93;;
72761;SDS011;60886;55.034;73.150;2023-06-19T04:56:10;16.95;;;8.70;;
72761;SDS011;60886;55.034;73.150;2023-06-19T04:59:12;16.23;;;8.15;;
72761;SDS011;60886;55.034;73.150;2023-06-19T05:02:13;18.55;;;8.88;;
72761;SDS011;60886;55.034;73.150;2023-06-19T05:05:19;18.37;;;9.10;;
72761;SDS011;60886;55.034;73.150;2023-06-19T05:08:21;15.90;;;8.57;;
72761;SDS011;60886;55.034;73.150;2023-06-19T05:11:22;15.98;;;8.43;;
72761;SDS011;60886;55.034;73.150;2023-06-19T05:14:24;15.13;;;8.20;;
72761;SDS011;60886;55.034;73.150;2023-06-19T05:17:26;15.73;;;9.05;;
72761;SDS011;60886;55.034;73.150;2023-06-19T05:20:28;15.63;;;8.67;;
72761;SDS011;60886;55.034;73.150;2023-06-19T05:23:29;23.20;;;9.02;;
72761;SDS011;60886;55.034;73.150;2023-06-19T05:26:31;16.45;;;8.50;;
72761;SDS011;60886;55.034;73.150;2023-06-19T05:29:33;16.15;;;8.75;;
72761;SDS011;60886;55.034;73.150;2023-06-19T05:32:34;15.77;;;8.33;;
72761;SDS011;60886;55.034;73.150;2023-06-19T05:35:36;17.02;;;8.25;;
72761;SDS011;60886;55.034;73.150;2023-06-19T05:38:37;19.73;;;9.27;;
72761;SDS011;60886;55.034;73.150;2023-06-19T05:41:39;21.38;;;9.32;;
72761;SDS011;60886;55.034;73.150;2023-06-19T05:44:40;22.42;;;9.18;;
72761;SDS011;60886;55.034;73.150;2023-06-19T05:47:42;19.23;;;9.73;;
72761;SDS011;60886;55.034;73.150;2023-06-19T05:50:44;22.83;;;10.33;;
72761;SDS011;60886;55.034;73.150;2023-06-19T05:53:47;21.60;;;9.32;;
72761;SDS011;60886;55.034;73.150;2023-06-19T05:56:53;20.60;;;9.70;;
72761;SDS011;60886;55.034;73.150;2023-06-19T05:59:54;22.88;;;9.60;;
72761;SDS011;60886;55.034;73.150;2023-06-19T06:02:58;17.25;;;9.02;;
72761;SDS011;60886;55.034;73.150;2023-06-19T06:06:03;18.58;;;9.02;;
72761;SDS011;60886;55.034;73.150;2023-06-19T06:09:05;28.15;;;9.60;;
72761;SDS011;60886;55.034;73.150;2023-06-19T06:12:11;20.73;;;9.27;;
72761;SDS011;60886;55.034;73.150;2023-06-19T06:15:12;19.70;;;10.37;;
72761;SDS011;60886;55.034;73.150;2023-06-19T06:18:14;16.92;;;9.68;;
72761;SDS011;60886;55.034;73.150;2023-06-19T06:21:16;23.55;;;9.88;;
72761;SDS011;60886;55.034;73.150;2023-06-19T06:24:17;17.97;;;9.03;;
72761;SDS011;60886;55.034;73.150;2023-06-19T06:27:19;21.08;;;9.15;;
72761;SDS011;60886;55.034;73.150;2023-06-19T06:30:20;19.83;;;10.07;;
72761;SDS011;60886;55.034;73.150;2023-06-19T06:33:23;16.45;;;8.95;;
72761;SDS011;60886;55.034;73.150;2023-06-19T06:36:24;19.02;;;9.23;;
72761;SDS011;60886;55.034;73.150;2023-06-19T06:39:26;21.43;;;9.27;;
72761;SDS011;60886;55.034;73.150;2023-06-19T06:42:27;21.35;;;9.50;;
72761;SDS011;60886;55.034;73.150;2023-06-19T06:45:29;20.13;;;9.83;;
72761;SDS011;60886;55.034;73.150;2023-06-19T06:48:30;16.83;;;8.87;;
72761;SDS011;60886;55.034;73.150;2023-06-19T06:51:32;20.00;;;9.32;;
72761;SDS011;60886;55.034;73.150;2023-06-19T06:54:33;18.17;;;9.67;;
72761;SDS011;60886;55.034;73.150;2023-06-19T06:57:35;19.80;;;10.45;;
72761;SDS011;60886;55.034;73.150;2023-06-19T07:00:36;15.47;;;9.57;;
72761;SDS011;60886;55.034;73.150;2023-06-19T07:03:37;18.70;;;9.57;;
72761;SDS011;60886;55.034;73.150;2023-06-19T07:06:40;15.23;;;9.00;;
72761;SDS011;60886;55.034;73.150;2023-06-19T07:09:41;20.15;;;9.65;;
72761;SDS011;60886;55.034;73.150;2023-06-19T07:12:47;18.87;;;9.27;;
72761;SDS011;60886;55.034;73.150;2023-06-19T07:15:49;18.83;;;10.18;;
72761;SDS011;60886;55.034;73.150;2023-06-19T07:19:01;15.63;;;8.65;;
72761;SDS011;60886;55.034;73.150;2023-06-19T07:22:03;19.95;;;9.25;;
72761;SDS011;60886;55.034;73.150;2023-06-19T07:25:05;17.47;;;9.37;;
72761;SDS011;60886;55.034;73.150;2023-06-19T07:28:07;19.33;;;8.75;;
72761;SDS011;60886;55.034;73.150;2023-06-19T07:31:08;17.77;;;8.67;;
72761;SDS011;60886;55.034;73.150;2023-06-19T07:34:10;18.42;;;8.05;;
72761;SDS011;60886;55.034;73.150;2023-06-19T07:37:12;17.23;;;7.80;;
72761;SDS011;60886;55.034;73.150;2023-06-19T07:40:18;14.23;;;7.35;;
72761;SDS011;60886;55.034;73.150;2023-06-19T07:43:24;18.43;;;7.07;;
72761;SDS011;60886;55.034;73.150;2023-06-19T07:46:26;18.20;;;7.15;;
72761;SDS011;60886;55.034;73.150;2023-06-19T07:49:27;22.48;;;7.50;;
72761;SDS011;60886;55.034;73.150;2023-06-19T07:52:29;17.23;;;7.10;;
72761;SDS011;60886;55.034;73.150;2023-06-19T07:55:30;15.17;;;7.00;;
72761;SDS011;60886;55.034;73.150;2023-06-19T07:58:32;17.67;;;7.70;;
72761;SDS011;60886;55.034;73.150;2023-06-19T08:01:36;18.52;;;7.82;;
72761;SDS011;60886;55.034;73.150;2023-06-19T08:04:40;15.27;;;7.70;;
72761;SDS011;60886;55.034;73.150;2023-06-19T08:07:43;16.50;;;7.55;;
72761;SDS011;60886;55.034;73.150;2023-06-19T08:10:44;16.90;;;7.32;;
72761;SDS011;60886;55.034;73.150;2023-06-19T08:13:53;19.07;;;7.80;;
72761;SDS011;60886;55.034;73.150;2023-06-19T08:16:55;13.82;;;7.30;;
72761;SDS011;60886;55.034;73.150;2023-06-19T08:19:57;17.80;;;7.75;;
72761;SDS011;60886;55.034;73.150;2023-06-19T08:22:58;22.42;;;7.07;;
72761;SDS011;60886;55.034;73.150;2023-06-19T08:26:00;13.77;;;7.55;;
72761;SDS011;60886;55.034;73.150;2023-06-19T08:29:20;14.43;;;7.40;;
72761;SDS011;60886;55.034;73.150;2023-06-19T08:32:39;19.38;;;7.90;;
72761;SDS011;60886;55.034;73.150;2023-06-19T08:35:41;18.73;;;7.43;;
72761;SDS011;60886;55.034;73.150;2023-06-19T08:38:42;20.43;;;7.33;;
72761;SDS011;60886;55.034;73.150;2023-06-19T08:41:44;18.75;;;7.00;;
72761;SDS011;60886;55.034;73.150;2023-06-19T08:44:45;19.05;;;7.30;;
72761;SDS011;60886;55.034;73.150;2023-06-19T08:47:47;14.93;;;7.80;;
72761;SDS011;60886;55.034;73.150;2023-06-19T08:50:49;18.20;;;7.00;;
72761;SDS011;60886;55.034;73.150;2023-06-19T08:53:55;15.38;;;7.22;;
72761;SDS011;60886;55.034;73.150;2023-06-19T08:57:01;19.87;;;7.13;;
72761;SDS011;60886;55.034;73.150;2023-06-19T09:00:04;20.33;;;7.40;;
72761;SDS011;60886;55.034;73.150;2023-06-19T09:03:12;17.77;;;7.18;;
72761;SDS011;60886;55.034;73.150;2023-06-19T09:06:20;14.90;;;7.15;;
72761;SDS011;60886;55.034;73.150;2023-06-19T09:09:22;14.53;;;6.13;;
72761;SDS011;60886;55.034;73.150;2023-06-19T09:12:24;24.67;;;7.13;;
72761;SDS011;60886;55.034;73.150;2023-06-19T09:15:36;21.67;;;6.57;;
72761;SDS011;60886;55.034;73.150;2023-06-19T09:18:44;22.63;;;6.67;;
72761;SDS011;60886;55.034;73.150;2023-06-19T09:22:02;17.45;;;6.32;;
72761;SDS011;60886;55.034;73.150;2023-06-19T09:25:06;18.80;;;6.00;;
72761;SDS011;60886;55.034;73.150;2023-06-19T09:28:16;15.55;;;6.25;;
72761;SDS011;60886;55.034;73.150;2023-06-19T09:31:19;17.80;;;6.93;;
72761;SDS011;60886;55.034;73.150;2023-06-19T09:34:20;14.50;;;6.10;;
72761;SDS011;60886;55.034;73.150;2023-06-19T09:37:25;19.77;;;6.43;;
72761;SDS011;60886;55.034;73.150;2023-06-19T09:40:28;20.50;;;7.20;;
72761;SDS011;60886;55.034;73.150;2023-06-19T09:43:34;19.57;;;7.17;;
72761;SDS011;60886;55.034;73.150;2023-06-19T09:46:38;20.77;;;6.80;;
72761;SDS011;60886;55.034;73.150;2023-06-19T09:49:49;17.27;;;6.47;;
72761;SDS011;60886;55.034;73.150;2023-06-19T09:52:58;26.63;;;7.32;;
72761;SDS011;60886;55.034;73.150;2023-06-19T09:56:00;27.40;;;7.63;;
72761;SDS011;60886;55.034;73.150;2023-06-19T09:59:02;21.73;;;7.03;;
72761;SDS011;60886;55.034;73.150;2023-06-19T10:02:05;26.17;;;7.80;;
72761;SDS011;60886;55.034;73.150;2023-06-19T10:05:08;22.80;;;7.60;;
72761;SDS011;60886;55.034;73.150;2023-06-19T10:08:13;22.23;;;7.03;;
72761;SDS011;60886;55.034;73.150;2023-06-19T10:11:14;27.27;;;7.32;;
72761;SDS011;60886;55.034;73.150;2023-06-19T10:14:16;21.23;;;7.53;;
72761;SDS011;60886;55.034;73.150;2023-06-19T10:17:21;16.67;;;4.65;;
72761;SDS011;60886;55.034;73.150;2023-06-19T10:23:35;14.35;;;2.90;;
72761;SDS011;60886;55.034;73.150;2023-06-19T10:26:37;12.15;;;2.67;;
72761;SDS011;60886;55.034;73.150;2023-06-19T10:29:39;15.05;;;4.22;;
72761;SDS011;60886;55.034;73.150;2023-06-19T10:32:41;14.20;;;4.50;;
72761;SDS011;60886;55.034;73.150;2023-06-19T10:35:42;13.00;;;4.60;;
72761;SDS011;60886;55.034;73.150;2023-06-19T10:38:44;13.43;;;4.50;;
72761;SDS011;60886;55.034;73.150;2023-06-19T10:41:48;14.93;;;4.43;;
72761;SDS011;60886;55.034;73.150;2023-06-19T10:44:50;12.47;;;3.93;;
72761;SDS011;60886;55.034;73.150;2023-06-19T10:47:58;11.38;;;4.50;;
72761;SDS011;60886;55.034;73.150;2023-06-19T10:51:05;13.40;;;4.23;;
72761;SDS011;60886;55.034;73.150;2023-06-19T10:54:07;10.33;;;4.10;;
72761;SDS011;60886;55.034;73.150;2023-06-19T10:57:10;15.17;;;5.27;;
72761;SDS011;60886;55.034;73.150;2023-06-19T11:00:11;12.90;;;4.53;;
72761;SDS011;60886;55.034;73.150;2023-06-19T11:03:29;10.82;;;3.80;;
72761;SDS011;60886;55.034;73.150;2023-06-19T11:06:32;13.18;;;3.80;;
72761;SDS011;60886;55.034;73.150;2023-06-19T11:09:35;13.57;;;4.30;;
72761;SDS011;60886;55.034;73.150;2023-06-19T11:12:36;14.30;;;5.10;;
72761;SDS011;60886;55.034;73.150;2023-06-19T11:15:37;15.50;;;6.72;;
72761;SDS011;60886;55.034;73.150;2023-06-19T11:18:39;13.03;;;5.07;;
72761;SDS011;60886;55.034;73.150;2023-06-19T11:21:44;25.50;;;9.45;;
72761;SDS011;60886;55.034;73.150;2023-06-19T11:24:47;20.53;;;9.53;;
72761;SDS011;60886;55.034;73.150;2023-06-19T11:27:58;22.02;;;8.79;;
72761;SDS011;60886;55.034;73.150;2023-06-19T11:31:02;21.48;;;9.02;;
72761;SDS011;60886;55.034;73.150;2023-06-19T11:34:04;19.40;;;7.20;;
72761;SDS011;60886;55.034;73.150;2023-06-19T11:37:15;12.10;;;5.55;;
72761;SDS011;60886;55.034;73.150;2023-06-19T11:40:19;12.88;;;5.13;;
72761;SDS011;60886;55.034;73.150;2023-06-19T11:43:26;12.57;;;5.10;;
72761;SDS011;60886;55.034;73.150;2023-06-19T11:46:30;13.77;;;4.57;;
72761;SDS011;60886;55.034;73.150;2023-06-19T11:49:35;14.77;;;4.53;;
72761;SDS011;60886;55.034;73.150;2023-06-19T11:52:37;9.98;;;3.83;;
72761;SDS011;60886;55.034;73.150;2023-06-19T11:55:39;11.27;;;4.07;;
72761;SDS011;60886;55.034;73.150;2023-06-19T11:58:41;11.57;;;4.03;;
72761;SDS011;60886;55.034;73.150;2023-06-19T12:01:42;15.55;;;4.38;;
72761;SDS011;60886;55.034;73.150;2023-06-19T12:04:44;16.43;;;5.00;;
72761;SDS011;60886;55.034;73.150;2023-06-19T12:07:45;13.70;;;4.10;;
72761;SDS011;60886;55.034;73.150;2023-06-19T12:10:47;12.10;;;4.00;;
72761;SDS011;60886;55.034;73.150;2023-06-19T12:13:49;12.87;;;4.47;;
72761;SDS011;60886;55.034;73.150;2023-06-19T12:16:50;11.27;;;4.25;;
72761;SDS011;60886;55.034;73.150;2023-06-19T12:19:52;14.13;;;4.40;;
72761;SDS011;60886;55.034;73.150;2023-06-19T12:22:58;11.93;;;4.60;;
72761;SDS011;60886;55.034;73.150;2023-06-19T12:25:59;20.00;;;6.90;;
72761;SDS011;60886;55.034;73.150;2023-06-19T12:29:01;15.73;;;5.93;;
72761;SDS011;60886;55.034;73.150;2023-06-19T12:32:02;18.42;;;8.32;;
72761;SDS011;60886;55.034;73.150;2023-06-19T12:35:04;17.17;;;7.80;;
72761;SDS011;60886;55.034;73.150;2023-06-19T12:38:08;12.90;;;5.63;;
72761;SDS011;60886;55.034;73.150;2023-06-19T12:41:14;14.18;;;5.40;;
72761;SDS011;60886;55.034;73.150;2023-06-19T12:44:16;12.83;;;4.47;;
72761;SDS011;60886;55.034;73.150;2023-06-19T12:47:18;15.10;;;3.70;;
72761;SDS011;60886;55.034;73.150;2023-06-19T12:50:19;10.07;;;2.73;;
72761;SDS011;60886;55.034;73.150;2023-06-19T12:53:21;10.45;;;3.03;;
72761;SDS011;60886;55.034;73.150;2023-06-19T12:56:27;8.37;;;2.70;;
72761;SDS011;60886;55.034;73.150;2023-06-19T12:59:29;12.93;;;2.80;;
72761;SDS011;60886;55.034;73.150;2023-06-19T13:02:32;7.50;;;2.40;;
72761;SDS011;60886;55.034;73.150;2023-06-19T13:05:33;10.93;;;2.60;;
72761;SDS011;60886;55.034;73.150;2023-06-19T13:08:38;11.00;;;2.63;;
72761;SDS011;60886;55.034;73.150;2023-06-19T13:11:39;8.47;;;2.37;;
72761;SDS011;60886;55.034;73.150;2023-06-19T13:14:40;13.10;;;3.80;;
72761;SDS011;60886;55.034;73.150;2023-06-19T13:17:43;12.15;;;4.50;;
72761;SDS011;60886;55.034;73.150;2023-06-19T13:20:44;11.47;;;3.73;;
72761;SDS011;60886;55.034;73.150;2023-06-19T13:23:49;14.47;;;2.97;;
72761;SDS011;60886;55.034;73.150;2023-06-19T13:26:50;11.40;;;2.72;;
72761;SDS011;60886;55.034;73.150;2023-06-19T13:29:53;13.90;;;4.55;;
72761;SDS011;60886;55.034;73.150;2023-06-19T13:32:57;13.35;;;3.47;;
72761;SDS011;60886;55.034;73.150;2023-06-19T13:35:59;16.90;;;3.25;;
72761;SDS011;60886;55.034;73.150;2023-06-19T13:39:01;22.37;;;4.50;;
72761;SDS011;60886;55.034;73.150;2023-06-19T13:42:03;19.92;;;4.97;;
72761;SDS011;60886;55.034;73.150;2023-06-19T13:45:05;23.50;;;3.83;;
72761;SDS011;60886;55.034;73.150;2023-06-19T13:48:07;17.50;;;3.35;;
72761;SDS011;60886;55.034;73.150;2023-06-19T13:51:09;19.90;;;3.80;;
72761;SDS011;60886;55.034;73.150;2023-06-19T13:54:11;15.67;;;2.77;;
72761;SDS011;60886;55.034;73.150;2023-06-19T13:57:14;12.63;;;3.05;;
72761;SDS011;60886;55.034;73.150;2023-06-19T14:00:16;15.10;;;2.80;;
72761;SDS011;60886;55.034;73.150;2023-06-19T14:03:18;13.30;;;3.47;;
72761;SDS011;60886;55.034;73.150;2023-06-19T14:06:19;11.73;;;3.30;;
72761;SDS011;60886;55.034;73.150;2023-06-19T14:09:21;9.87;;;2.23;;
72761;SDS011;60886;55.034;73.150;2023-06-19T14:12:22;11.02;;;1.90;;
72761;SDS011;60886;55.034;73.150;2023-06-19T14:15:24;12.37;;;2.13;;
72761;SDS011;60886;55.034;73.150;2023-06-19T14:18:25;7.93;;;1.88;;
72761;SDS011;60886;55.034;73.150;2023-06-19T14:21:27;9.90;;;2.20;;
72761;SDS011;60886;55.034;73.150;2023-06-19T14:24:28;9.95;;;2.72;;
72761;SDS011;60886;55.034;73.150;2023-06-19T14:27:30;9.32;;;2.47;;
72761;SDS011;60886;55.034;73.150;2023-06-19T14:30:32;8.67;;;2.03;;
72761;SDS011;60886;55.034;73.150;2023-06-19T14:33:34;8.20;;;2.13;;
72761;SDS011;60886;55.034;73.150;2023-06-19T14:36:38;7.53;;;1.70;;
72761;SDS011;60886;55.034;73.150;2023-06-19T14:39:48;8.40;;;2.00;;
72761;SDS011;60886;55.034;73.150;2023-06-19T14:42:57;11.85;;;2.65;;
72761;SDS011;60886;55.034;73.150;2023-06-19T14:46:01;8.35;;;2.60;;
72761;SDS011;60886;55.034;73.150;2023-06-19T14:49:12;8.63;;;2.03;;
72761;SDS011;60886;55.034;73.150;2023-06-19T14:52:14;13.95;;;5.80;;
72761;SDS011;60886;55.034;73.150;2023-06-19T14:55:18;10.32;;;2.47;;
72761;SDS011;60886;55.034;73.150;2023-06-19T14:58:20;7.78;;;2.28;;
72761;SDS011;60886;55.034;73.150;2023-06-19T15:01:21;9.85;;;2.40;;
72761;SDS011;60886;55.034;73.150;2023-06-19T15:04:23;10.53;;;2.60;;
72761;SDS011;60886;55.034;73.150;2023-06-19T15:07:24;14.82;;;6.40;;
72761;SDS011;60886;55.034;73.150;2023-06-19T15:10:26;10.20;;;3.47;;
72761;SDS011;60886;55.034;73.150;2023-06-19T15:13:28;9.68;;;3.30;;
72761;SDS011;60886;55.034;73.150;2023-06-19T15:16:30;9.90;;;3.22;;
72761;SDS011;60886;55.034;73.150;2023-06-19T15:19:31;8.23;;;2.73;;
72761;SDS011;60886;55.034;73.150;2023-06-19T15:22:33;15.73;;;6.55;;
72761;SDS011;60886;55.034;73.150;2023-06-19T15:25:36;11.88;;;3.00;;
72761;SDS011;60886;55.034;73.150;2023-06-19T15:28:38;14.13;;;4.10;;
72761;SDS011;60886;55.034;73.150;2023-06-19T15:31:41;21.85;;;11.07;;
72761;SDS011;60886;55.034;73.150;2023-06-19T15:34:42;10.10;;;3.40;;
72761;SDS011;60886;55.034;73.150;2023-06-19T15:37:44;10.97;;;3.27;;
72761;SDS011;60886;55.034;73.150;2023-06-19T15:40:46;12.13;;;3.10;;
72761;SDS011;60886;55.034;73.150;2023-06-19T15:43:48;12.93;;;3.00;;
72761;SDS011;60886;55.034;73.150;2023-06-19T15:46:49;11.55;;;3.15;;
72761;SDS011;60886;55.034;73.150;2023-06-19T15:49:51;16.33;;;4.10;;
72761;SDS011;60886;55.034;73.150;2023-06-19T15:52:57;13.85;;;4.20;;
72761;SDS011;60886;55.034;73.150;2023-06-19T15:55:59;14.15;;;3.80;;
72761;SDS011;60886;55.034;73.150;2023-06-19T15:59:01;13.67;;;3.63;;
72761;SDS011;60886;55.034;73.150;2023-06-19T16:02:02;14.77;;;3.83;;
72761;SDS011;60886;55.034;73.150;2023-06-19T16:05:04;15.97;;;4.17;;
72761;SDS011;60886;55.034;73.150;2023-06-19T16:08:06;14.67;;;5.13;;
72761;SDS011;60886;55.034;73.150;2023-06-19T16:11:08;16.35;;;6.20;;
72761;SDS011;60886;55.034;73.150;2023-06-19T16:14:11;23.17;;;6.68;;
72761;SDS011;60886;55.034;73.150;2023-06-19T16:17:13;20.73;;;6.03;;
72761;SDS011;60886;55.034;73.150;2023-06-19T16:20:14;19.15;;;5.80;;
72761;SDS011;60886;55.034;73.150;2023-06-19T16:23:16;16.87;;;5.23;;
72761;SDS011;60886;55.034;73.150;2023-06-19T16:26:19;15.43;;;5.10;;
72761;SDS011;60886;55.034;73.150;2023-06-19T16:29:20;18.05;;;4.90;;
72761;SDS011;60886;55.034;73.150;2023-06-19T16:32:21;14.20;;;5.93;;
72761;SDS011;60886;55.034;73.150;2023-06-19T16:35:23;21.83;;;5.80;;
72761;SDS011;60886;55.034;73.150;2023-06-19T16:38:24;16.02;;;4.43;;
72761;SDS011;60886;55.034;73.150;2023-06-19T16:41:26;18.43;;;4.50;;
72761;SDS011;60886;55.034;73.150;2023-06-19T16:44:28;14.93;;;3.77;;
72761;SDS011;60886;55.034;73.150;2023-06-19T16:47:29;15.45;;;4.15;;
72761;SDS011;60886;55.034;73.150;2023-06-19T16:50:31;15.85;;;3.97;;
72761;SDS011;60886;55.034;73.150;2023-06-19T16:53:33;15.40;;;4.00;;
72761;SDS011;60886;55.034;73.150;2023-06-19T16:56:34;12.03;;;3.97;;
72761;SDS011;60886;55.034;73.150;2023-06-19T16:59:36;17.02;;;4.20;;
72761;SDS011;60886;55.034;73.150;2023-06-19T17:02:37;16.63;;;3.70;;
72761;SDS011;60886;55.034;73.150;2023-06-19T17:05:39;21.85;;;4.20;;
72761;SDS011;60886;55.034;73.150;2023-06-19T17:08:40;15.00;;;3.90;;
72761;SDS011;60886;55.034;73.150;2023-06-19T17:11:42;15.60;;;4.22;;
72761;SDS011;60886;55.034;73.150;2023-06-19T17:14:43;16.17;;;4.05;;
72761;SDS011;60886;55.034;73.150;2023-06-19T17:17:45;14.35;;;4.72;;
72761;SDS011;60886;55.034;73.150;2023-06-19T17:20:46;18.43;;;4.50;;
72761;SDS011;60886;55.034;73.150;2023-06-19T17:23:48;18.30;;;6.07;;
72761;SDS011;60886;55.034;73.150;2023-06-19T17:26:49;17.30;;;4.63;;
72761;SDS011;60886;55.034;73.150;2023-06-19T17:29:57;14.07;;;3.47;;
72761;SDS011;60886;55.034;73.150;2023-06-19T17:32:59;10.00;;;3.72;;
72761;SDS011;60886;55.034;73.150;2023-06-19T17:36:04;13.43;;;3.65;;
72761;SDS011;60886;55.034;73.150;2023-06-19T17:39:07;12.23;;;3.60;;
72761;SDS011;60886;55.034;73.150;2023-06-19T17:42:09;14.23;;;3.53;;
72761;SDS011;60886;55.034;73.150;2023-06-19T17:45:10;14.77;;;3.85;;
72761;SDS011;60886;55.034;73.150;2023-06-19T17:48:12;17.45;;;4.32;;
72761;SDS011;60886;55.034;73.150;2023-06-19T17:51:14;12.95;;;3.70;;
72761;SDS011;60886;55.034;73.150;2023-06-19T17:54:15;11.70;;;3.75;;